Time;durP1;ratioP1;P1;durP2;ratioP2;P2;SDS_P1;SDS_P2;PMS_P1;PMS_P2;Temp;Humidity;BMP_temperature;BMP_pressure;BME280_temperature;BME280_humidity;BME280_pressure;Samples;Min_cycle;Max_cycle;Signal;HPM_P1;HPM_P2
2022/10/07 00:02:09;;;;;;;83.03;61.70;;;;;;;;;;5026772;28;20179;-43
2022/10/07 00:04:35;;;;;;;82.10;58.50;;;;;;;;;;5021910;28;20839;-43
2022/10/07 00:07:02;;;;;;;95.93;66.40;;;;;;;;;;5016366;28;20863;-42
2022/10/07 00:09:28;;;;;;;96.10;70.57;;;;;;;;;;5023333;28;20206;-42
2022/10/07 00:11:54;;;;;;;79.40;59.40;;;;;;;;;;5020752;28;20176;-43
2022/10/07 00:14:20;;;;;;;91.93;66.50;;;;;;;;;;5025143;28;20982;-41
2022/10/07 00:16:46;;;;;;;91.27;66.10;;;;;;;;;;5021588;28;20180;-42
2022/10/07 00:19:13;;;;;;;88.03;65.07;;;;;;;;;;5021262;28;20268;-43
2022/10/07 00:21:39;;;;;;;86.93;65.27;;;;;;;;;;5018425;28;20704;-43
2022/10/07 00:24:06;;;;;;;89.17;65.77;;;;;;;;;;5021287;28;20307;-44
2022/10/07 00:26:33;;;;;;;83.40;61.80;;;;;;;;;;5019817;28;20183;-44
2022/10/07 00:29:00;;;;;;;90.50;65.07;;;;;;;;;;5021589;28;20749;-44
2022/10/07 00:31:27;;;;;;;92.93;65.47;;;;;;;;;;5020816;28;20458;-44
2022/10/07 00:33:54;;;;;;;90.20;64.93;;;;;;;;;;5017888;28;20735;-44
2022/10/07 00:36:28;;;;;;;90.33;65.33;;;;;;;;;;5019690;28;20175;-44
2022/10/07 00:38:58;;;;;;;85.57;62.53;;;;;;;;;;5021041;28;20377;-44
2022/10/07 00:41:32;;;;;;;80.43;58.90;;;;;;;;;;5016267;28;20269;-44
2022/10/07 00:43:58;;;;;;;93.80;70.30;;;;;;;;;;5018110;28;20491;-43
2022/10/07 00:46:35;;;;;;;81.30;63.33;;;;;;;;;;5018559;28;20969;-44
2022/10/07 00:49:03;;;;;;;92.37;64.90;;;;;;;;;;5020436;28;20596;-44
2022/10/07 00:51:31;;;;;;;85.43;61.27;;;;;;;;;;5019133;28;20175;-44
2022/10/07 00:53:57;;;;;;;76.70;56.77;;;;;;;;;;5021031;28;20172;-44
2022/10/07 00:56:24;;;;;;;77.80;58.10;;;;;;;;;;5013496;28;20215;-44
2022/10/07 00:58:51;;;;;;;71.60;54.27;;;;;;;;;;5019402;28;20861;-44
2022/10/07 01:01:18;;;;;;;77.40;56.90;;;;;;;;;;5022112;28;20184;-43
2022/10/07 01:03:46;;;;;;;89.47;64.83;;;;;;;;;;5020583;28;20364;-43
2022/10/07 01:06:13;;;;;;;93.97;66.43;;;;;;;;;;5017360;28;20590;-43
2022/10/07 01:08:39;;;;;;;93.30;66.63;;;;;;;;;;5018560;28;20754;-43
2022/10/07 01:11:17;;;;;;;93.37;65.70;;;;;;;;;;5022454;28;20282;-41
2022/10/07 01:13:43;;;;;;;83.73;62.70;;;;;;;;;;5018971;28;20411;-42
2022/10/07 01:16:16;;;;;;;95.73;64.13;;;;;;;;;;5022078;28;20401;-45
2022/10/07 01:18:49;;;;;;;98.73;68.20;;;;;;;;;;5020910;28;20645;-42
2022/10/07 01:21:18;;;;;;;85.63;62.63;;;;;;;;;;5020026;28;20176;-43
2022/10/07 01:23:56;;;;;;;92.00;64.20;;;;;;;;;;5018590;28;20265;-43
2022/10/07 01:26:26;;;;;;;96.47;68.23;;;;;;;;;;5021666;28;20678;-42
2022/10/07 01:28:55;;;;;;;91.87;65.33;;;;;;;;;;5022848;28;20207;-43
2022/10/07 01:31:24;;;;;;;95.93;65.80;;;;;;;;;;5024258;28;20724;-43
2022/10/07 01:33:52;;;;;;;80.93;59.33;;;;;;;;;;5024420;28;20200;-44
2022/10/07 01:36:21;;;;;;;90.80;64.73;;;;;;;;;;5024604;28;20308;-42
2022/10/07 01:38:50;;;;;;;93.93;66.57;;;;;;;;;;5024891;28;20176;-43
2022/10/07 01:41:18;;;;;;;80.97;60.47;;;;;;;;;;5027746;28;20397;-42
2022/10/07 01:43:45;;;;;;;87.23;61.93;;;;;;;;;;5026474;28;20603;-41
2022/10/07 01:46:22;;;;;;;88.40;61.70;;;;;;;;;;5022742;28;20249;-41
2022/10/07 01:48:50;;;;;;;83.83;60.77;;;;;;;;;;5024749;28;20766;-43
2022/10/07 01:51:17;;;;;;;84.67;62.10;;;;;;;;;;5027111;28;20184;-43
2022/10/07 01:53:51;;;;;;;77.33;57.03;;;;;;;;;;5028370;28;20203;-43
2022/10/07 01:56:17;;;;;;;82.37;58.77;;;;;;;;;;5026843;28;20182;-43
2022/10/07 01:58:46;;;;;;;79.43;57.50;;;;;;;;;;5025789;28;20179;-41
2022/10/07 02:01:15;;;;;;;75.43;55.87;;;;;;;;;;5023807;28;20715;-41
2022/10/07 02:03:47;;;;;;;79.83;58.50;;;;;;;;;;5020904;28;20194;-43
2022/10/07 02:06:29;;;;;;;70.30;53.23;;;;;;;;;;5024033;28;20340;-43
2022/10/07 02:08:56;;;;;;;89.23;61.20;;;;;;;;;;5026099;28;20227;-43
2022/10/07 02:11:27;;;;;;;73.83;55.90;;;;;;;;;;5023040;28;20615;-41
2022/10/07 02:14:09;;;;;;;83.57;61.37;;;;;;;;;;5020514;28;20626;-43
2022/10/07 02:16:35;;;;;;;91.60;66.23;;;;;;;;;;5025752;28;22052;-43
2022/10/07 02:19:04;;;;;;;77.37;59.13;;;;;;;;;;5027343;28;20250;-43
2022/10/07 02:21:33;;;;;;;91.33;66.93;;;;;;;;;;5023751;28;20938;-43
2022/10/07 02:24:00;;;;;;;84.23;61.10;;;;;;;;;;5022478;28;20595;-43
2022/10/07 02:26:27;;;;;;;85.30;64.47;;;;;;;;;;5025875;28;20284;-43
2022/10/07 02:28:54;;;;;;;74.67;57.90;;;;;;;;;;5027508;28;20195;-42
2022/10/07 02:31:23;;;;;;;85.40;64.43;;;;;;;;;;5024957;28;20176;-42
2022/10/07 02:33:52;;;;;;;84.00;62.70;;;;;;;;;;5019799;28;20781;-42
2022/10/07 02:36:22;;;;;;;78.43;61.47;;;;;;;;;;5022662;28;20618;-43
2022/10/07 02:38:48;;;;;;;85.20;63.30;;;;;;;;;;5024153;28;20237;-42
2022/10/07 02:41:30;;;;;;;79.73;60.57;;;;;;;;;;5021062;28;20172;-43
2022/10/07 02:44:16;;;;;;;82.70;61.77;;;;;;;;;;5022389;28;20183;-45
2022/10/07 02:46:45;;;;;;;77.53;60.03;;;;;;;;;;5000049;28;20191;-44
2022/10/07 02:49:13;;;;;;;81.00;63.50;;;;;;;;;;5025882;28;20203;-43
2022/10/07 02:51:42;;;;;;;82.80;60.43;;;;;;;;;;5024294;28;20531;-42
2022/10/07 02:54:09;;;;;;;76.07;57.57;;;;;;;;;;5036072;28;20661;-43
2022/10/07 02:56:37;;;;;;;80.17;60.73;;;;;;;;;;5018698;28;20640;-43
2022/10/07 02:59:04;;;;;;;93.87;68.00;;;;;;;;;;5020750;28;20209;-43
2022/10/07 03:01:31;;;;;;;94.30;69.50;;;;;;;;;;5024015;28;20202;-43
2022/10/07 03:03:57;;;;;;;95.07;67.20;;;;;;;;;;5022517;28;20485;-42
2022/10/07 03:06:24;;;;;;;98.40;68.30;;;;;;;;;;5017378;28;20628;-43
2022/10/07 03:08:51;;;;;;;88.50;64.30;;;;;;;;;;5022602;28;20934;-43
2022/10/07 03:11:17;;;;;;;97.70;69.97;;;;;;;;;;5026574;28;20616;-43
2022/10/07 03:13:44;;;;;;;85.37;64.97;;;;;;;;;;5023115;28;20623;-43
2022/10/07 03:16:10;;;;;;;96.77;69.83;;;;;;;;;;5021089;28;20233;-43
2022/10/07 03:18:36;;;;;;;101.60;71.30;;;;;;;;;;5019171;28;20571;-43
2022/10/07 03:21:03;;;;;;;92.50;67.17;;;;;;;;;;5021861;28;20585;-43
2022/10/07 03:23:29;;;;;;;90.53;66.67;;;;;;;;;;5022594;28;20555;-43
2022/10/07 03:25:56;;;;;;;88.40;65.60;;;;;;;;;;5022915;28;20452;-43
2022/10/07 03:28:23;;;;;;;96.47;68.60;;;;;;;;;;5019698;28;20199;-43
2022/10/07 03:30:50;;;;;;;85.83;63.10;;;;;;;;;;5021069;28;20173;-43
2022/10/07 03:33:17;;;;;;;92.07;64.93;;;;;;;;;;5022828;28;20252;-44
2022/10/07 03:35:43;;;;;;;111.40;74.83;;;;;;;;;;5026145;28;20746;-44
2022/10/07 03:38:09;;;;;;;101.50;73.07;;;;;;;;;;5021894;28;20176;-44
2022/10/07 03:40:36;;;;;;;100.60;72.53;;;;;;;;;;5017485;28;20735;-44
2022/10/07 03:43:03;;;;;;;91.70;66.77;;;;;;;;;;5021558;28;20507;-44
2022/10/07 03:45:29;;;;;;;99.27;70.43;;;;;;;;;;5015156;28;20851;-45
2022/10/07 03:47:56;;;;;;;88.00;65.23;;;;;;;;;;5025068;28;20200;-45
2022/10/07 03:50:22;;;;;;;94.30;69.23;;;;;;;;;;5023230;28;20167;-44
2022/10/07 03:52:48;;;;;;;88.83;64.70;;;;;;;;;;5020840;28;21069;-44
2022/10/07 03:55:15;;;;;;;84.30;62.53;;;;;;;;;;5020638;28;20180;-44
2022/10/07 03:57:50;;;;;;;82.50;62.47;;;;;;;;;;5020442;28;20175;-44
2022/10/07 04:00:21;;;;;;;79.13;62.13;;;;;;;;;;5021424;28;20175;-43
2022/10/07 04:02:48;;;;;;;85.93;63.77;;;;;;;;;;5022930;28;20176;-44
2022/10/07 04:05:15;;;;;;;87.27;62.40;;;;;;;;;;5020777;28;20233;-43
2022/10/07 04:07:45;;;;;;;108.93;77.93;;;;;;;;;;5019819;28;20180;-44
2022/10/07 04:10:13;;;;;;;113.17;80.37;;;;;;;;;;5022078;28;20641;-43
2022/10/07 04:12:39;;;;;;;142.80;89.67;;;;;;;;;;5021464;28;20921;-43
2022/10/07 04:15:05;;;;;;;123.73;83.20;;;;;;;;;;5021308;28;20184;-42
2022/10/07 04:17:31;;;;;;;139.80;87.00;;;;;;;;;;5021245;28;20436;-43
2022/10/07 04:19:57;;;;;;;143.40;91.83;;;;;;;;;;5016238;28;20928;-44
2022/10/07 04:22:24;;;;;;;114.17;81.40;;;;;;;;;;5019686;28;20714;-43
2022/10/07 04:27:36;;;;;;;99.10;74.50;;;;;;;;;;5017183;28;21044;-44
2022/10/07 04:30:02;;;;;;;118.57;82.37;;;;;;;;;;5017325;28;20233;-43
2022/10/07 04:32:28;;;;;;;110.47;76.10;;;;;;;;;;5020342;28;20179;-44
2022/10/07 04:34:54;;;;;;;102.27;73.83;;;;;;;;;;5020224;28;20231;-44
2022/10/07 04:37:20;;;;;;;123.03;85.40;;;;;;;;;;5021253;28;20176;-43
2022/10/07 04:39:47;;;;;;;100.17;73.47;;;;;;;;;;5018224;28;20950;-43
2022/10/07 04:43:18;;;;;;;104.87;76.57;;;;;;;;;;5019506;28;20206;-44
2022/10/07 04:44:59;;;;;;;95.97;73.57;;;;;;;;;;5017307;28;20602;-44
2022/10/07 04:47:25;;;;;;;100.90;72.07;;;;;;;;;;5018749;28;20188;-44
2022/10/07 04:49:52;;;;;;;88.20;66.77;;;;;;;;;;5015121;28;20199;-44
2022/10/07 04:52:19;;;;;;;98.03;73.67;;;;;;;;;;5015499;28;20715;-44
2022/10/07 04:54:45;;;;;;;94.03;70.30;;;;;;;;;;5019675;28;21450;-42
2022/10/07 04:57:12;;;;;;;103.57;74.13;;;;;;;;;;5020512;28;20667;-44
2022/10/07 04:59:38;;;;;;;124.33;84.43;;;;;;;;;;5022934;28;20745;-45
2022/10/07 05:02:05;;;;;;;88.40;67.37;;;;;;;;;;5018869;28;20172;-43
2022/10/07 05:04:31;;;;;;;91.63;68.13;;;;;;;;;;5017504;28;20219;-43
2022/10/07 05:06:57;;;;;;;103.13;73.37;;;;;;;;;;5014729;28;20573;-41
2022/10/07 05:09:23;;;;;;;89.43;67.60;;;;;;;;;;5016336;28;20203;-43
2022/10/07 05:11:54;;;;;;;101.17;70.47;;;;;;;;;;5019563;28;20175;-43
2022/10/07 05:14:20;;;;;;;95.87;67.50;;;;;;;;;;5017898;28;20432;-43
2022/10/07 05:16:47;;;;;;;97.00;70.93;;;;;;;;;;5007264;28;20184;-43
2022/10/07 05:19:13;;;;;;;98.77;69.10;;;;;;;;;;5009902;28;20630;-43
2022/10/07 05:21:39;;;;;;;96.83;68.63;;;;;;;;;;5008713;28;20311;-43
2022/10/07 05:24:05;;;;;;;98.57;70.70;;;;;;;;;;5017061;28;20278;-43
2022/10/07 05:26:32;;;;;;;83.13;62.43;;;;;;;;;;5009377;28;20801;-43
2022/10/07 05:28:58;;;;;;;98.70;69.40;;;;;;;;;;5012564;28;20324;-43
2022/10/07 05:31:25;;;;;;;91.60;65.63;;;;;;;;;;5015024;28;20440;-43
2022/10/07 05:33:51;;;;;;;94.20;66.37;;;;;;;;;;5015092;28;20218;-43
2022/10/07 05:36:18;;;;;;;98.37;67.67;;;;;;;;;;5017563;28;20171;-44
2022/10/07 05:38:45;;;;;;;94.70;67.50;;;;;;;;;;5017907;28;21168;-44
2022/10/07 05:41:11;;;;;;;103.43;72.57;;;;;;;;;;5015579;28;20194;-43
2022/10/07 05:43:41;;;;;;;110.83;72.10;;;;;;;;;;5020386;28;20465;-43
2022/10/07 05:46:08;;;;;;;110.03;75.23;;;;;;;;;;5019558;28;20289;-43
2022/10/07 05:48:35;;;;;;;112.07;76.00;;;;;;;;;;5022180;28;20287;-44
2022/10/07 05:51:01;;;;;;;106.50;74.43;;;;;;;;;;5020463;28;20699;-44
2022/10/07 05:53:28;;;;;;;115.73;79.10;;;;;;;;;;5022606;28;20176;-44
2022/10/07 05:55:54;;;;;;;110.43;74.97;;;;;;;;;;5027903;28;20172;-43
2022/10/07 05:58:21;;;;;;;120.10;80.63;;;;;;;;;;5022102;28;20226;-43
2022/10/07 06:00:52;;;;;;;120.50;79.77;;;;;;;;;;5020644;28;20602;-42
2022/10/07 06:03:18;;;;;;;108.73;77.17;;;;;;;;;;5020439;28;20286;-43
2022/10/07 06:05:49;;;;;;;131.03;86.37;;;;;;;;;;5025082;28;20188;-43
2022/10/07 06:08:17;;;;;;;129.07;84.23;;;;;;;;;;5026319;28;20200;-43
2022/10/07 06:13:27;;;;;;;161.73;102.93;;;;;;;;;;5020895;28;20310;-43
2022/10/07 06:15:54;;;;;;;157.57;103.53;;;;;;;;;;5023704;28;20474;-43
2022/10/07 06:18:20;;;;;;;157.40;102.43;;;;;;;;;;5029442;28;20180;-43
2022/10/07 06:20:53;;;;;;;158.30;103.43;;;;;;;;;;5027201;28;20263;-44
2022/10/07 06:23:19;;;;;;;167.90;109.13;;;;;;;;;;5025508;28;20256;-43
2022/10/07 06:25:51;;;;;;;154.37;103.37;;;;;;;;;;5021318;28;20765;-43
2022/10/07 06:28:18;;;;;;;148.53;101.97;;;;;;;;;;5024501;28;20589;-44
2022/10/07 06:30:44;;;;;;;141.97;97.87;;;;;;;;;;5022110;28;20323;-43
2022/10/07 06:33:10;;;;;;;150.97;101.00;;;;;;;;;;5024770;28;20248;-44
2022/10/07 06:35:36;;;;;;;154.23;102.80;;;;;;;;;;5026325;28;20184;-44
2022/10/07 06:38:04;;;;;;;152.63;100.50;;;;;;;;;;5014750;28;21333;-43
2022/10/07 06:40:30;;;;;;;140.23;95.33;;;;;;;;;;5021311;28;20501;-43
2022/10/07 06:42:57;;;;;;;151.50;100.90;;;;;;;;;;5022039;28;20622;-43
2022/10/07 06:45:23;;;;;;;144.00;98.30;;;;;;;;;;5024601;28;21106;-44
2022/10/07 06:47:49;;;;;;;153.73;101.07;;;;;;;;;;5022975;28;20190;-44
2022/10/07 06:50:15;;;;;;;126.00;87.30;;;;;;;;;;5023595;28;20714;-43
2022/10/07 06:52:41;;;;;;;140.23;92.33;;;;;;;;;;5022610;28;20179;-43
2022/10/07 06:55:07;;;;;;;129.17;87.87;;;;;;;;;;5026254;28;20257;-44
2022/10/07 06:57:33;;;;;;;130.53;87.23;;;;;;;;;;5025031;28;20455;-43
2022/10/07 07:00:00;;;;;;;135.23;87.60;;;;;;;;;;5028071;28;20684;-43
2022/10/07 07:02:29;;;;;;;133.30;86.00;;;;;;;;;;5022693;28;20182;-44
2022/10/07 07:04:56;;;;;;;137.03;87.10;;;;;;;;;;5023600;28;20668;-44
2022/10/07 07:07:23;;;;;;;128.00;85.60;;;;;;;;;;5024429;28;20538;-44
2022/10/07 07:09:52;;;;;;;129.70;82.67;;;;;;;;;;5029359;28;20191;-44
2022/10/07 07:12:18;;;;;;;125.30;82.17;;;;;;;;;;5031302;28;20161;-43
2022/10/07 07:14:44;;;;;;;118.97;78.07;;;;;;;;;;5028840;28;20178;-43
2022/10/07 07:17:11;;;;;;;115.83;80.20;;;;;;;;;;5023293;28;20168;-43
2022/10/07 07:19:37;;;;;;;104.93;72.03;;;;;;;;;;5024962;28;20172;-44
2022/10/07 07:22:04;;;;;;;107.17;69.97;;;;;;;;;;5024285;28;20509;-44
2022/10/07 07:24:30;;;;;;;103.03;68.83;;;;;;;;;;5026611;28;20183;-43
2022/10/07 07:26:56;;;;;;;101.03;69.17;;;;;;;;;;5024550;28;20188;-44
2022/10/07 07:29:22;;;;;;;90.90;64.87;;;;;;;;;;5025852;28;20199;-44
2022/10/07 07:31:49;;;;;;;94.27;65.60;;;;;;;;;;5020684;28;20525;-43
2022/10/07 07:34:16;;;;;;;83.57;59.60;;;;;;;;;;5028661;28;20473;-43
2022/10/07 07:36:44;;;;;;;77.63;57.47;;;;;;;;;;5030076;28;20378;-43
2022/10/07 07:39:11;;;;;;;77.43;58.50;;;;;;;;;;5025412;28;20187;-44
2022/10/07 07:41:45;;;;;;;76.67;56.97;;;;;;;;;;5039614;28;20449;-43
2022/10/07 07:44:12;;;;;;;83.27;60.03;;;;;;;;;;5023507;28;20175;-44
2022/10/07 07:46:40;;;;;;;79.83;58.43;;;;;;;;;;5023531;28;20168;-43
2022/10/07 07:49:09;;;;;;;71.17;53.37;;;;;;;;;;5030962;28;20196;-43
2022/10/07 07:51:35;;;;;;;87.07;62.10;;;;;;;;;;5028789;28;20931;-43
2022/10/07 07:54:01;;;;;;;70.83;55.43;;;;;;;;;;5028531;28;20176;-42
2022/10/07 07:56:28;;;;;;;74.23;58.23;;;;;;;;;;5028872;28;20680;-43
2022/10/07 07:58:55;;;;;;;73.67;56.00;;;;;;;;;;5028915;28;20722;-44
2022/10/07 08:01:21;;;;;;;74.53;58.70;;;;;;;;;;5029561;28;20334;-44
2022/10/07 08:03:48;;;;;;;78.90;58.77;;;;;;;;;;5025379;28;20182;-43
2022/10/07 08:06:15;;;;;;;70.20;56.23;;;;;;;;;;5025660;28;20633;-44
2022/10/07 08:08:42;;;;;;;63.83;51.03;;;;;;;;;;5027432;28;20191;-44
2022/10/07 08:11:12;;;;;;;65.80;52.50;;;;;;;;;;5026992;28;20175;-44
2022/10/07 08:13:40;;;;;;;68.87;53.00;;;;;;;;;;5028794;28;20621;-44
2022/10/07 08:16:06;;;;;;;66.87;51.80;;;;;;;;;;5025564;28;20173;-43
2022/10/07 08:18:33;;;;;;;60.37;48.97;;;;;;;;;;5024085;28;20175;-42
2022/10/07 08:21:00;;;;;;;68.17;51.90;;;;;;;;;;5019792;28;20176;-44
2022/10/07 08:23:28;;;;;;;61.20;49.57;;;;;;;;;;5027170;28;20187;-43
2022/10/07 08:25:55;;;;;;;62.17;49.17;;;;;;;;;;5027933;28;20555;-43
2022/10/07 08:28:21;;;;;;;63.43;51.30;;;;;;;;;;5027849;28;20199;-43
2022/10/07 08:30:48;;;;;;;60.37;49.93;;;;;;;;;;5028083;28;20608;-43
2022/10/07 08:33:14;;;;;;;61.40;46.23;;;;;;;;;;5022701;28;20172;-42
2022/10/07 08:35:40;;;;;;;60.03;49.50;;;;;;;;;;5024801;28;20390;-43
2022/10/07 08:38:06;;;;;;;60.40;48.93;;;;;;;;;;5033500;28;20187;-43
2022/10/07 08:40:33;;;;;;;61.10;48.80;;;;;;;;;;5030365;28;20245;-43
2022/10/07 08:43:00;;;;;;;59.43;46.10;;;;;;;;;;5025582;28;20809;-43
2022/10/07 08:45:31;;;;;;;55.70;46.87;;;;;;;;;;5023000;28;20198;-43
2022/10/07 08:47:59;;;;;;;57.20;45.70;;;;;;;;;;5026563;28;20484;-43
2022/10/07 08:50:30;;;;;;;58.43;47.13;;;;;;;;;;5028949;28;20338;-43
2022/10/07 08:53:07;;;;;;;63.23;49.33;;;;;;;;;;5025931;28;20223;-43
2022/10/07 08:55:40;;;;;;;59.43;47.97;;;;;;;;;;5026005;28;20171;-43
2022/10/07 08:58:06;;;;;;;59.03;44.87;;;;;;;;;;5026498;28;20495;-43
2022/10/07 09:00:40;;;;;;;56.77;47.20;;;;;;;;;;5025619;28;20179;-43
2022/10/07 09:03:14;;;;;;;62.40;49.53;;;;;;;;;;5027436;28;20167;-43
2022/10/07 09:05:43;;;;;;;58.03;47.63;;;;;;;;;;5023213;28;20252;-44
2022/10/07 09:08:17;;;;;;;58.10;45.73;;;;;;;;;;5023513;28;20200;-43
2022/10/07 09:10:48;;;;;;;59.93;46.30;;;;;;;;;;5025787;28;20283;-42
2022/10/07 09:13:14;;;;;;;56.80;47.93;;;;;;;;;;5024214;28;20217;-42
2022/10/07 09:15:49;;;;;;;60.70;47.97;;;;;;;;;;5024320;28;20731;-42
2022/10/07 09:18:16;;;;;;;52.17;44.83;;;;;;;;;;5023025;28;20670;-42
2022/10/07 09:20:44;;;;;;;51.17;42.47;;;;;;;;;;5023910;28;20184;-42
2022/10/07 09:23:14;;;;;;;53.97;46.00;;;;;;;;;;5026681;28;20250;-43
2022/10/07 09:25:41;;;;;;;52.53;42.87;;;;;;;;;;5022625;28;20288;-43
2022/10/07 09:28:15;;;;;;;59.27;43.47;;;;;;;;;;5025055;28;20256;-43
2022/10/07 09:30:41;;;;;;;49.50;41.30;;;;;;;;;;5024918;28;20410;-43
2022/10/07 09:33:20;;;;;;;51.90;42.17;;;;;;;;;;5028768;28;20478;-43
2022/10/07 09:35:52;;;;;;;54.93;43.53;;;;;;;;;;5027701;28;20414;-42
2022/10/07 09:38:28;;;;;;;50.27;39.63;;;;;;;;;;5025163;28;20615;-43
2022/10/07 09:41:14;;;;;;;46.33;38.30;;;;;;;;;;5027350;28;20187;-43
2022/10/07 09:43:43;;;;;;;49.93;41.50;;;;;;;;;;5022153;28;20633;-43
2022/10/07 09:46:24;;;;;;;48.87;39.23;;;;;;;;;;5029215;28;20172;-43
2022/10/07 09:48:54;;;;;;;45.03;36.53;;;;;;;;;;5027226;28;20377;-43
2022/10/07 09:51:25;;;;;;;42.63;37.03;;;;;;;;;;5026200;28;20160;-43
2022/10/07 09:54:14;;;;;;;46.37;38.83;;;;;;;;;;5028813;28;20465;-44
2022/10/07 09:56:42;;;;;;;41.37;36.37;;;;;;;;;;5030391;28;20180;-43
2022/10/07 09:59:17;;;;;;;48.30;38.20;;;;;;;;;;5031828;28;20537;-44
2022/10/07 10:01:51;;;;;;;44.23;36.83;;;;;;;;;;5032616;28;20417;-44
2022/10/07 10:04:18;;;;;;;44.13;35.77;;;;;;;;;;5025689;28;21478;-44
2022/10/07 10:06:48;;;;;;;46.37;36.00;;;;;;;;;;5025711;28;20176;-44
2022/10/07 10:09:18;;;;;;;44.30;35.90;;;;;;;;;;5031856;28;20203;-44
2022/10/07 10:11:45;;;;;;;47.57;38.33;;;;;;;;;;5030827;28;20234;-44
2022/10/07 10:14:26;;;;;;;44.63;33.07;;;;;;;;;;5030136;28;20607;-44
2022/10/07 10:16:52;;;;;;;36.53;32.33;;;;;;;;;;5030759;28;20168;-43
2022/10/07 10:19:23;;;;;;;37.23;31.63;;;;;;;;;;5027676;28;20188;-44
2022/10/07 10:21:55;;;;;;;33.07;28.47;;;;;;;;;;5030135;28;20180;-44
2022/10/07 10:26:24;;;;;;;34.83;29.50;;;;;;;;;;5033997;28;20638;-44
2022/10/07 10:27:21;;;;;;;33.87;27.43;;;;;;;;;;5029928;28;20487;-44
2022/10/07 10:29:55;;;;;;;31.37;25.27;;;;;;;;;;5028386;28;20488;-44
2022/10/07 10:32:36;;;;;;;31.03;25.53;;;;;;;;;;5026330;28;20250;-44
2022/10/07 10:35:06;;;;;;;35.27;28.23;;;;;;;;;;5032198;28;20331;-44
2022/10/07 10:37:41;;;;;;;38.13;31.23;;;;;;;;;;5028479;28;20565;-44
2022/10/07 10:40:22;;;;;;;33.77;27.20;;;;;;;;;;5027647;28;20611;-44
2022/10/07 10:43:00;;;;;;;34.60;27.93;;;;;;;;;;5027888;28;20731;-42
2022/10/07 10:45:50;;;;;;;35.23;26.60;;;;;;;;;;5032427;28;20190;-42
2022/10/07 10:48:33;;;;;;;29.57;24.40;;;;;;;;;;5021222;28;20283;-45
2022/10/07 10:51:16;;;;;;;27.17;23.17;;;;;;;;;;5028542;28;20187;-44
2022/10/07 10:54:00;;;;;;;26.83;22.63;;;;;;;;;;5030241;28;20184;-44
2022/10/07 10:56:27;;;;;;;26.70;21.13;;;;;;;;;;5029928;28;20698;-44
2022/10/07 10:59:29;;;;;;;24.13;20.17;;;;;;;;;;5031942;28;20594;-44
2022/10/07 11:02:18;;;;;;;20.60;14.23;;;;;;;;;;4994086;28;20266;-44
2022/10/07 11:04:44;;;;;;;20.13;16.87;;;;;;;;;;5003878;28;20184;-43
2022/10/07 11:07:17;;;;;;;24.20;17.97;;;;;;;;;;5031198;28;20176;-42
2022/10/07 11:09:56;;;;;;;26.53;18.23;;;;;;;;;;5033503;28;20844;-43
2022/10/07 11:12:41;;;;;;;25.07;18.93;;;;;;;;;;5029409;28;20171;-42
2022/10/07 11:15:43;;;;;;;21.50;17.77;;;;;;;;;;5026769;28;20873;-42
2022/10/07 11:18:16;;;;;;;19.40;16.93;;;;;;;;;;4993468;28;20417;-42
2022/10/07 11:20:47;;;;;;;17.80;14.50;;;;;;;;;;5021649;28;20261;-41
2022/10/07 11:23:35;;;;;;;15.90;14.03;;;;;;;;;;5029317;28;20186;-42
2022/10/07 11:26:05;;;;;;;18.03;16.10;;;;;;;;;;5026668;28;20287;-42
2022/10/07 11:28:33;;;;;;;18.53;16.43;;;;;;;;;;5026920;28;20330;-44
2022/10/07 11:31:12;;;;;;;23.77;18.03;;;;;;;;;;5025653;28;20197;-44
2022/10/07 11:33:47;;;;;;;19.77;16.37;;;;;;;;;;5027336;28;20274;-45
2022/10/07 11:36:19;;;;;;;18.23;15.50;;;;;;;;;;5029467;28;20699;-44
2022/10/07 11:38:46;;;;;;;18.77;13.67;;;;;;;;;;5026751;28;20179;-44
2022/10/07 11:41:12;;;;;;;16.53;12.53;;;;;;;;;;5028048;28;20242;-44
2022/10/07 11:43:44;;;;;;;18.60;13.93;;;;;;;;;;5026662;28;20184;-44
2022/10/07 11:46:10;;;;;;;16.87;13.50;;;;;;;;;;5029510;28;20549;-42
2022/10/07 11:48:38;;;;;;;18.07;14.03;;;;;;;;;;5026479;28;21089;-42
2022/10/07 11:51:06;;;;;;;20.20;15.20;;;;;;;;;;5023703;28;20176;-43
2022/10/07 11:53:39;;;;;;;18.90;13.50;;;;;;;;;;5029119;28;20431;-43
2022/10/07 11:56:07;;;;;;;22.77;14.37;;;;;;;;;;5031040;28;20684;-43
2022/10/07 11:58:35;;;;;;;22.47;14.47;;;;;;;;;;5026807;28;20186;-43
2022/10/07 12:01:20;;;;;;;18.23;13.20;;;;;;;;;;5025004;28;20615;-43
2022/10/07 12:03:47;;;;;;;20.13;15.33;;;;;;;;;;5024415;28;20320;-44
2022/10/07 12:06:13;;;;;;;20.97;14.60;;;;;;;;;;5029587;28;20186;-43
2022/10/07 12:08:40;;;;;;;16.20;12.80;;;;;;;;;;5027087;28;20628;-43
2022/10/07 12:11:27;;;;;;;15.60;12.03;;;;;;;;;;5025563;28;20550;-43
2022/10/07 12:13:53;;;;;;;13.60;9.80;;;;;;;;;;5017350;28;20187;-43
2022/10/07 12:16:31;;;;;;;14.27;10.77;;;;;;;;;;5026739;28;21300;-43
2022/10/07 12:19:06;;;;;;;14.77;12.27;;;;;;;;;;5028493;28;20286;-42
2022/10/07 12:21:51;;;;;;;18.57;13.53;;;;;;;;;;5031831;28;20675;-42
2022/10/07 12:24:17;;;;;;;13.83;11.77;;;;;;;;;;5027113;28;20245;-42
2022/10/07 12:26:44;;;;;;;17.23;12.43;;;;;;;;;;5027095;28;20188;-42
2022/10/07 12:29:25;;;;;;;13.03;11.67;;;;;;;;;;5026888;28;20310;-42
2022/10/07 12:31:51;;;;;;;14.57;11.30;;;;;;;;;;5030715;28;20168;-42
2022/10/07 12:34:38;;;;;;;18.97;12.17;;;;;;;;;;5027847;28;20421;-43
2022/10/07 12:37:22;;;;;;;18.73;13.20;;;;;;;;;;5023846;28;20164;-41
2022/10/07 12:39:48;;;;;;;17.83;12.17;;;;;;;;;;5026554;28;20250;-43
2022/10/07 12:42:15;;;;;;;18.17;14.23;;;;;;;;;;5027473;28;20480;-43
2022/10/07 12:44:50;;;;;;;21.97;13.30;;;;;;;;;;5029786;28;20616;-43
2022/10/07 12:47:24;;;;;;;15.03;12.30;;;;;;;;;;5028122;28;20172;-43
2022/10/07 12:49:57;;;;;;;14.37;10.93;;;;;;;;;;5025948;28;20222;-43
2022/10/07 12:52:43;;;;;;;17.10;11.17;;;;;;;;;;5028746;28;20174;-43
2022/10/07 12:55:14;;;;;;;16.03;11.83;;;;;;;;;;5023972;28;20191;-43
2022/10/07 12:57:42;;;;;;;20.60;13.40;;;;;;;;;;5021023;28;20198;-43
2022/10/07 13:00:13;;;;;;;15.83;12.50;;;;;;;;;;5020881;28;20636;-43
2022/10/07 13:02:42;;;;;;;16.83;11.67;;;;;;;;;;5018352;28;20357;-43
2022/10/07 13:05:27;;;;;;;17.90;12.77;;;;;;;;;;5023752;28;20179;-43
2022/10/07 13:08:11;;;;;;;12.70;9.27;;;;;;;;;;5024838;28;20222;-43
2022/10/07 13:10:37;;;;;;;14.83;8.90;;;;;;;;;;5018704;28;20505;-43
2022/10/07 13:13:12;;;;;;;11.80;9.13;;;;;;;;;;5022719;28;20172;-43
2022/10/07 13:15:40;;;;;;;13.63;9.40;;;;;;;;;;5026063;28;20751;-43
2022/10/07 13:18:24;;;;;;;18.57;9.43;;;;;;;;;;5027712;28;20176;-43
2022/10/07 13:20:50;;;;;;;10.23;8.50;;;;;;;;;;5029552;28;20364;-43
2022/10/07 13:23:18;;;;;;;10.40;8.17;;;;;;;;;;5024481;28;20259;-43
2022/10/07 13:25:46;;;;;;;9.43;6.60;;;;;;;;;;5021179;28;20782;-43
2022/10/07 13:28:15;;;;;;;10.17;7.60;;;;;;;;;;5029016;28;20391;-43
2022/10/07 13:30:42;;;;;;;13.03;9.10;;;;;;;;;;5031333;28;20249;-42
2022/10/07 13:33:17;;;;;;;12.20;9.07;;;;;;;;;;5033092;28;20172;-43
2022/10/07 13:35:43;;;;;;;11.63;8.27;;;;;;;;;;5026305;28;20775;-43
2022/10/07 13:38:20;;;;;;;10.67;7.60;;;;;;;;;;5027770;28;20164;-44
2022/10/07 13:40:53;;;;;;;12.67;7.97;;;;;;;;;;5031864;28;20587;-44
2022/10/07 13:43:26;;;;;;;11.67;8.33;;;;;;;;;;5030839;28;20237;-44
2022/10/07 13:45:52;;;;;;;16.63;11.87;;;;;;;;;;5028216;28;20168;-44
2022/10/07 13:48:20;;;;;;;18.00;12.10;;;;;;;;;;5028672;28;20514;-44
2022/10/07 13:50:49;;;;;;;16.30;10.70;;;;;;;;;;5033192;28;20269;-44
2022/10/07 13:53:29;;;;;;;14.37;10.40;;;;;;;;;;5034605;28;20176;-45
2022/10/07 13:56:14;;;;;;;17.50;12.20;;;;;;;;;;5034175;28;20693;-44
2022/10/07 13:58:40;;;;;;;17.13;11.70;;;;;;;;;;5026982;28;20513;-44
2022/10/07 14:01:06;;;;;;;13.63;10.40;;;;;;;;;;5027840;28;20175;-44
2022/10/07 14:03:32;;;;;;;12.57;8.47;;;;;;;;;;5029900;28;20171;-44
2022/10/07 14:06:00;;;;;;;18.23;9.07;;;;;;;;;;5032533;28;20378;-44
2022/10/07 14:08:30;;;;;;;14.17;10.47;;;;;;;;;;5035306;28;20181;-44
2022/10/07 14:11:03;;;;;;;13.07;9.00;;;;;;;;;;5030554;28;20592;-44
2022/10/07 14:13:30;;;;;;;14.93;9.93;;;;;;;;;;5028198;28;20173;-43
2022/10/07 14:15:57;;;;;;;10.70;9.03;;;;;;;;;;5028600;28;20285;-44
2022/10/07 14:18:28;;;;;;;13.30;8.07;;;;;;;;;;5032433;28;20175;-43
2022/10/07 14:20:55;;;;;;;15.03;9.27;;;;;;;;;;5030163;28;20179;-43
2022/10/07 14:23:25;;;;;;;12.37;9.13;;;;;;;;;;5028786;28;20167;-43
2022/10/07 14:25:55;;;;;;;13.40;9.57;;;;;;;;;;5028550;28;20614;-44
2022/10/07 14:28:24;;;;;;;12.60;8.77;;;;;;;;;;5030235;28;20436;-44
2022/10/07 14:37:01;;;;;;;13.53;7.33;;;;;;;;;;5026372;28;20264;-44
2022/10/07 14:39:30;;;;;;;14.47;8.40;;;;;;;;;;5024855;28;20218;-43
2022/10/07 14:41:56;;;;;;;9.93;7.77;;;;;;;;;;5028661;28;20630;-43
2022/10/07 14:44:24;;;;;;;13.43;7.60;;;;;;;;;;5026752;28;20732;-43